Time;durP1;ratioP1;P1;durP2;ratioP2;P2;SDS_P1;SDS_P2;PMS_P1;PMS_P2;Temp;Humidity;BMP_temperature;BMP_pressure;BME280_temperature;BME280_humidity;BME280_pressure;Samples;Min_cycle;Max_cycle;Signal;HPM_P1;HPM_P2
2021/09/19 00:02:16;;;;;;;10.20;5.93;;;461.30;2355.20;;;;;;5043089;28;20021;-78
2021/09/19 00:04:42;;;;;;;10.02;6.10;;;461.20;2355.20;;;;;;5033964;28;20092;-77
2021/09/19 00:07:08;;;;;;;10.05;6.45;;;461.30;2355.20;;;;;;5033045;28;20057;-80
2021/09/19 00:09:33;;;;;;;10.40;5.93;;;461.40;2329.60;;;;;;5033796;28;20548;-77
2021/09/19 00:11:59;;;;;;;8.55;6.45;;;461.30;2355.20;;;;;;5033774;28;20032;-77
2021/09/19 00:14:25;;;;;;;9.10;6.20;;;461.30;2355.20;;;;;;5033800;28;20080;-78
2021/09/19 00:16:51;;;;;;;9.80;6.05;;;461.20;2355.20;;;;;;5032730;28;20026;-78
2021/09/19 00:19:19;;;;;;;10.50;6.35;;;461.10;2355.20;;;;;;5033687;28;20037;-77
2021/09/19 00:21:45;;;;;;;12.13;5.90;;;461.10;2380.80;;;;;;5035386;28;20119;-78
2021/09/19 00:24:11;;;;;;;10.88;5.78;;;461.10;2355.20;;;;;;5052755;28;20425;-77
2021/09/19 00:26:37;;;;;;;8.80;6.05;;;461.10;2380.80;;;;;;5052368;28;20401;-80
2021/09/19 00:29:03;;;;;;;11.75;6.50;;;461.00;2380.80;;;;;;5053949;28;20052;-77
2021/09/19 00:31:29;;;;;;;14.98;7.47;;;461.00;2380.80;;;;;;5039891;28;20068;-77
2021/09/19 00:33:54;;;;;;;9.68;6.10;;;461.00;2380.80;;;;;;5052192;28;20071;-77
2021/09/19 00:36:20;;;;;;;9.23;6.07;;;460.90;2380.80;;;;;;5052507;28;20074;-77
2021/09/19 00:38:46;;;;;;;9.18;6.32;;;460.90;2380.80;;;;;;5049798;28;20040;-79
2021/09/19 00:41:11;;;;;;;8.80;6.10;;;460.90;2380.80;;;;;;5041021;28;20108;-77
2021/09/19 00:43:37;;;;;;;9.98;5.85;;;460.80;2380.80;;;;;;5053417;28;20381;-79
2021/09/19 00:46:03;;;;;;;10.40;6.60;;;436.00;2355.20;;;;;;5052370;28;20522;-76
2021/09/19 00:48:29;;;;;;;10.80;5.82;;;435.90;2355.20;;;;;;5052246;28;20045;-79
2021/09/19 00:50:55;;;;;;;9.95;6.05;;;435.90;2355.20;;;;;;5039345;28;20021;-77
2021/09/19 00:53:21;;;;;;;10.18;6.70;;;435.80;2355.20;;;;;;5053487;28;20048;-77
2021/09/19 00:55:49;;;;;;;12.13;7.03;;;435.80;2355.20;;;;;;5050406;28;20130;-80
2021/09/19 00:58:17;;;;;;;12.60;7.25;;;435.70;2355.20;;;;;;5042425;28;20072;-77
2021/09/19 01:00:48;;;;;;;9.95;6.18;;;435.80;2355.20;;;;;;5052028;28;20025;-77
2021/09/19 01:03:17;;;;;;;9.93;6.50;;;435.80;2355.20;;;;;;5052145;28;20114;-79
2021/09/19 01:05:44;;;;;;;9.95;6.03;;;435.90;2355.20;;;;;;5052597;28;20017;-76
2021/09/19 01:08:14;;;;;;;17.73;6.72;;;435.90;2355.20;;;;;;5039516;28;20037;-77
2021/09/19 01:10:40;;;;;;;10.38;6.18;;;435.90;2355.20;;;;;;5053075;28;20033;-79
2021/09/19 01:13:07;;;;;;;12.77;7.28;;;435.90;2355.20;;;;;;5051801;28;20029;-79
2021/09/19 01:15:33;;;;;;;17.33;7.53;;;435.90;2355.20;;;;;;5053377;28;20025;-79
2021/09/19 01:18:00;;;;;;;10.32;7.25;;;435.90;2355.20;;;;;;5051523;28;20044;-77
2021/09/19 01:20:26;;;;;;;12.15;6.93;;;436.00;2355.20;;;;;;5037239;28;20027;-80
2021/09/19 01:23:18;;;;;;;9.68;6.32;;;436.00;2355.20;;;;;;5051670;28;20036;-77
2021/09/19 01:25:44;;;;;;;16.05;6.13;;;436.00;2355.20;;;;;;5044543;28;20084;-80
2021/09/19 01:28:11;;;;;;;11.85;6.93;;;435.90;2355.20;;;;;;5046345;28;20407;-78
2021/09/19 01:30:37;;;;;;;9.55;6.53;;;436.00;2355.20;;;;;;5051668;28;20048;-77
2021/09/19 01:33:04;;;;;;;10.13;7.20;;;435.90;2355.20;;;;;;5051764;28;20053;-80
2021/09/19 01:35:31;;;;;;;8.77;6.65;;;435.90;2355.20;;;;;;5052627;28;20107;-77
2021/09/19 01:37:57;;;;;;;10.70;7.22;;;435.80;2355.20;;;;;;5052953;28;20033;-79
2021/09/19 01:40:25;;;;;;;9.27;6.40;;;435.70;2355.20;;;;;;5051461;28;20136;-77
2021/09/19 01:42:51;;;;;;;11.98;7.03;;;;;;;;;;5052974;28;20032;-78
2021/09/19 01:45:17;;;;;;;8.25;6.22;;;435.50;2355.20;;;;;;5051341;28;20037;-79
2021/09/19 01:47:43;;;;;;;10.27;6.60;;;435.50;2355.20;;;;;;5037803;28;20614;-79
2021/09/19 01:50:09;;;;;;;12.05;6.22;;;435.40;2355.20;;;;;;5052707;28;20025;-78
2021/09/19 01:52:35;;;;;;;11.25;7.28;;;435.70;2355.20;;;;;;5051548;28;20060;-77
2021/09/19 01:55:02;;;;;;;11.35;6.05;;;;;;;;;;5052455;28;20072;-77
2021/09/19 01:57:28;;;;;;;10.82;6.72;;;435.20;2355.20;;;;;;5051475;28;20059;-80
2021/09/19 01:59:56;;;;;;;10.35;6.80;;;435.30;2355.20;;;;;;5051489;28;20021;-77
2021/09/19 02:02:24;;;;;;;10.88;6.13;;;435.30;2355.20;;;;;;5052528;28;20476;-78
2021/09/19 02:04:51;;;;;;;9.35;6.03;;;435.20;2355.20;;;;;;5052619;28;20104;-79
2021/09/19 02:07:17;;;;;;;11.30;7.20;;;435.30;2355.20;;;;;;5052687;28;20021;-79
2021/09/19 02:09:43;;;;;;;9.25;6.95;;;435.30;2355.20;;;;;;5052313;28;20021;-77
2021/09/19 02:12:09;;;;;;;11.23;7.03;;;435.90;2355.20;;;;;;5041166;28;20022;-77
2021/09/19 02:14:35;;;;;;;14.48;7.30;;;435.30;2355.20;;;;;;5048702;28;20025;-80
2021/09/19 02:17:01;;;;;;;12.35;7.13;;;435.20;2355.20;;;;;;5043033;28;20025;-77
2021/09/19 02:19:27;;;;;;;12.80;7.03;;;410.40;2355.20;;;;;;5036132;28;20083;-77
2021/09/19 02:21:54;;;;;;;10.63;6.78;;;435.30;2355.20;;;;;;5048834;28;20032;-78
2021/09/19 02:24:19;;;;;;;10.18;6.93;;;410.50;2355.20;;;;;;5051294;28;20056;-77
2021/09/19 02:26:45;;;;;;;11.27;7.18;;;435.20;2355.20;;;;;;5052286;28;20071;-77
2021/09/19 02:29:11;;;;;;;9.95;7.30;;;410.50;2355.20;;;;;;5052537;28;20376;-80
2021/09/19 02:31:36;;;;;;;11.93;7.47;;;435.20;2355.20;;;;;;5037545;28;20486;-79
2021/09/19 02:34:02;;;;;;;11.88;7.57;;;435.20;2355.20;;;;;;5054354;28;20037;-79
2021/09/19 02:36:28;;;;;;;9.45;6.78;;;435.20;2355.20;;;;;;5054572;28;20120;-79
2021/09/19 02:38:54;;;;;;;12.63;7.97;;;435.20;2355.20;;;;;;5055754;28;20037;-77
2021/09/19 02:41:22;;;;;;;10.77;7.40;;;410.50;2355.20;;;;;;5054727;28;20028;-77
2021/09/19 02:43:48;;;;;;;16.55;7.95;;;410.40;2355.20;;;;;;5055784;28;20025;-77
2021/09/19 02:46:14;;;;;;;11.95;7.22;;;410.50;2355.20;;;;;;5054532;28;20489;-77
2021/09/19 02:48:40;;;;;;;13.02;7.38;;;410.30;2355.20;;;;;;5041672;28;20112;-77
2021/09/19 02:51:06;;;;;;;11.68;7.57;;;410.30;2355.20;;;;;;5049557;28;20096;-77
2021/09/19 02:53:31;;;;;;;11.80;8.18;;;410.20;2355.20;;;;;;5046445;28;20389;-77
2021/09/19 02:55:57;;;;;;;12.23;7.63;;;410.20;2355.20;;;;;;5051066;28;20053;-78
2021/09/19 02:58:23;;;;;;;9.48;7.30;;;410.00;2355.20;;;;;;5045579;28;20068;-80
2021/09/19 03:00:48;;;;;;;10.35;7.13;;;410.00;2355.20;;;;;;5055485;28;20032;-78
2021/09/19 03:03:14;;;;;;;11.38;7.90;;;410.00;2355.20;;;;;;5047434;28;20029;-77
2021/09/19 03:05:40;;;;;;;9.63;7.32;;;409.90;2355.20;;;;;;5035265;28;20025;-77
2021/09/19 03:08:05;;;;;;;12.68;7.90;;;409.90;2355.20;;;;;;5041640;28;20021;-76
2021/09/19 03:10:31;;;;;;;13.68;7.13;;;409.90;2355.20;;;;;;5055227;28;20079;-79
2021/09/19 03:12:57;;;;;;;13.18;8.02;;;409.90;2355.20;;;;;;5054028;28;20481;-79
2021/09/19 03:15:23;;;;;;;14.45;8.18;;;409.90;2355.20;;;;;;5054016;28;20037;-77
2021/09/19 03:17:49;;;;;;;12.35;7.80;;;409.90;2355.20;;;;;;5053772;28;20264;-77
2021/09/19 03:20:16;;;;;;;12.52;7.97;;;409.90;2355.20;;;;;;5040875;28;20473;-77
2021/09/19 03:22:44;;;;;;;12.15;7.78;;;409.90;2355.20;;;;;;5055055;28;20028;-78
2021/09/19 03:25:10;;;;;;;11.25;7.03;;;409.90;2355.20;;;;;;5054909;28;20037;-77
2021/09/19 03:27:37;;;;;;;11.50;7.70;;;409.90;2355.20;;;;;;5054081;28;20063;-77
2021/09/19 03:30:05;;;;;;;11.80;7.25;;;409.90;2355.20;;;;;;5053718;28;20025;-77
2021/09/19 03:32:31;;;;;;;11.50;7.07;;;409.90;2355.20;;;;;;5054867;28;20017;-77
2021/09/19 03:34:57;;;;;;;9.80;7.05;;;409.90;2355.20;;;;;;5053407;28;20455;-77
2021/09/19 03:37:22;;;;;;;12.85;7.53;;;409.90;2355.20;;;;;;5047951;28;20461;-79
2021/09/19 03:39:48;;;;;;;14.68;7.72;;;409.70;2355.20;;;;;;5034936;28;20033;-77
2021/09/19 03:42:14;;;;;;;13.80;8.35;;;409.70;2355.20;;;;;;5036674;28;20017;-79
2021/09/19 03:44:39;;;;;;;9.80;7.20;;;409.60;2355.20;;;;;;5054223;28;20079;-78
2021/09/19 03:47:05;;;;;;;13.30;8.32;;;409.70;2355.20;;;;;;5053500;28;20040;-77
2021/09/19 03:49:31;;;;;;;15.52;7.78;;;409.60;2355.20;;;;;;5046271;28;20490;-76
2021/09/19 03:51:57;;;;;;;12.25;8.07;;;409.60;2355.20;;;;;;5047697;28;20029;-77
2021/09/19 03:54:22;;;;;;;9.23;7.38;;;409.60;2355.20;;;;;;5049337;28;20024;-77
2021/09/19 03:56:48;;;;;;;13.75;7.75;;;384.90;2329.60;;;;;;5033015;28;20063;-78
2021/09/19 03:59:14;;;;;;;12.40;8.13;;;384.90;2329.60;;;;;;5051622;28;20033;-79
2021/09/19 04:01:39;;;;;;;14.65;7.72;;;409.60;2355.20;;;;;;5053083;28;20045;-77
2021/09/19 04:04:05;;;;;;;9.43;7.75;;;409.60;2355.20;;;;;;5040106;28;20021;-80
2021/09/19 04:06:31;;;;;;;11.00;7.40;;;409.60;2355.20;;;;;;5054084;28;20096;-77
2021/09/19 04:08:56;;;;;;;12.32;8.48;;;384.90;2329.60;;;;;;5040018;28;20116;-77
2021/09/19 04:11:22;;;;;;;10.40;7.57;;;384.90;2329.60;;;;;;5048121;28;20025;-79
2021/09/19 04:13:48;;;;;;;14.00;9.60;;;384.90;2329.60;;;;;;5045065;28;20474;-79
2021/09/19 04:16:13;;;;;;;18.40;12.52;;;384.80;2329.60;;;;;;5040065;28;20013;-80
2021/09/19 04:18:39;;;;;;;16.45;11.27;;;384.90;2329.60;;;;;;5047716;28;20026;-78
2021/09/19 04:21:05;;;;;;;23.25;11.75;;;384.90;2329.60;;;;;;5044968;28;20481;-78
2021/09/19 04:23:31;;;;;;;36.35;20.25;;;384.90;2329.60;;;;;;5053857;28;20021;-79
2021/09/19 04:25:56;;;;;;;30.10;20.00;;;384.90;2329.60;;;;;;5053750;28;20033;-78
2021/09/19 04:28:22;;;;;;;25.80;16.17;;;384.90;2329.60;;;;;;5053546;28;20344;-77
2021/09/19 04:30:48;;;;;;;18.77;13.18;;;409.60;2355.20;;;;;;5046886;28;20076;-77
2021/09/19 04:33:13;;;;;;;15.48;10.30;;;409.60;2355.20;;;;;;5045621;28;20017;-77
2021/09/19 04:35:39;;;;;;;15.90;11.57;;;409.60;2355.20;;;;;;5053240;28;20590;-77
2021/09/19 04:38:05;;;;;;;22.33;16.75;;;409.70;2355.20;;;;;;5053487;28;20044;-79
2021/09/19 04:40:31;;;;;;;20.15;15.80;;;409.70;2355.20;;;;;;5053529;28;20017;-77
2021/09/19 04:42:56;;;;;;;17.50;11.98;;;409.70;2355.20;;;;;;5044805;28;20044;-80
2021/09/19 04:45:22;;;;;;;15.88;10.98;;;409.70;2355.20;;;;;;5047176;28;20075;-77
2021/09/19 04:47:48;;;;;;;17.30;12.23;;;409.80;2355.20;;;;;;5053701;28;20463;-77
2021/09/19 04:50:14;;;;;;;12.85;10.43;;;409.80;2355.20;;;;;;5053655;28;20561;-80
2021/09/19 04:52:40;;;;;;;13.20;9.48;;;409.90;2355.20;;;;;;5051880;28;20029;-77
2021/09/19 04:55:06;;;;;;;12.25;9.10;;;409.90;2355.20;;;;;;5052887;28;20037;-81
2021/09/19 04:57:31;;;;;;;13.68;10.43;;;409.90;2355.20;;;;;;5053016;28;20481;-82
2021/09/19 04:59:57;;;;;;;15.07;11.30;;;410.00;2355.20;;;;;;5052192;28;20035;-83
2021/09/19 05:02:23;;;;;;;16.45;10.25;;;410.00;2355.20;;;;;;5051165;28;20017;-83
2021/09/19 05:04:48;;;;;;;11.50;9.23;;;410.00;2355.20;;;;;;5033691;28;20374;-77
2021/09/19 05:07:14;;;;;;;11.52;8.50;;;410.00;2355.20;;;;;;5046353;28;20021;-83
2021/09/19 05:09:42;;;;;;;11.40;8.32;;;409.90;2355.20;;;;;;5047166;28;20045;-76
2021/09/19 05:12:08;;;;;;;12.52;8.75;;;409.80;2355.20;;;;;;5033507;28;20381;-84
2021/09/19 05:14:33;;;;;;;12.57;7.88;;;409.90;2355.20;;;;;;5050449;28;20066;-83
2021/09/19 05:16:59;;;;;;;14.07;8.82;;;409.90;2355.20;;;;;;5051543;28;20392;-77
2021/09/19 05:19:25;;;;;;;14.10;8.35;;;410.00;2355.20;;;;;;5040504;28;20033;-80
2021/09/19 05:21:51;;;;;;;17.02;8.68;;;409.90;2355.20;;;;;;5049355;28;20044;-77
2021/09/19 05:24:16;;;;;;;15.38;8.73;;;410.00;2355.20;;;;;;5051962;28;20024;-81
2021/09/19 05:26:42;;;;;;;14.98;8.00;;;410.00;2355.20;;;;;;5043407;28;20033;-78
2021/09/19 05:29:08;;;;;;;12.18;8.68;;;410.00;2355.20;;;;;;5033089;28;20115;-79
2021/09/19 05:31:34;;;;;;;10.05;7.75;;;410.00;2355.20;;;;;;5031986;28;20097;-78
2021/09/19 05:34:01;;;;;;;12.32;8.27;;;410.00;2355.20;;;;;;5033015;28;20088;-77
2021/09/19 05:36:27;;;;;;;12.13;8.35;;;410.00;2355.20;;;;;;5040572;28;20017;-78
2021/09/19 05:38:53;;;;;;;13.30;9.02;;;410.00;2355.20;;;;;;5035425;28;20095;-78
2021/09/19 05:41:18;;;;;;;12.40;8.90;;;410.00;2355.20;;;;;;5032187;28;20037;-84
2021/09/19 05:43:44;;;;;;;12.45;8.77;;;410.10;2355.20;;;;;;5033474;28;20536;-84
2021/09/19 05:46:10;;;;;;;12.88;8.77;;;410.20;2355.20;;;;;;5033258;28;20022;-82
2021/09/19 05:48:36;;;;;;;11.60;7.85;;;410.30;2355.20;;;;;;5012205;28;20045;-78
2021/09/19 05:51:02;;;;;;;13.13;8.98;;;410.50;2355.20;;;;;;5037324;28;20378;-76
2021/09/19 05:53:28;;;;;;;11.75;8.38;;;410.50;2355.20;;;;;;5037381;28;20117;-81
2021/09/19 05:55:54;;;;;;;13.23;9.23;;;410.50;2355.20;;;;;;5031593;28;20160;-81
2021/09/19 05:58:20;;;;;;;15.90;9.00;;;435.20;2355.20;;;;;;5032829;28;20041;-78
2021/09/19 06:00:45;;;;;;;12.95;8.98;;;435.30;2355.20;;;;;;5037573;28;20070;-77
2021/09/19 06:03:11;;;;;;;20.60;11.77;;;435.30;2355.20;;;;;;5033033;28;20053;-78
2021/09/19 06:05:37;;;;;;;15.35;10.13;;;435.30;2355.20;;;;;;5032779;28;20454;-79
2021/09/19 06:08:03;;;;;;;12.18;8.57;;;435.40;2355.20;;;;;;5034966;28;20021;-79
2021/09/19 06:10:28;;;;;;;13.02;7.72;;;435.50;2355.20;;;;;;5036494;28;20029;-78
2021/09/19 06:12:54;;;;;;;10.27;7.10;;;435.60;2355.20;;;;;;5035337;28;20030;-81
2021/09/19 06:15:20;;;;;;;13.00;9.93;;;435.60;2355.20;;;;;;5036635;28;20087;-77
2021/09/19 06:17:46;;;;;;;15.43;8.80;;;435.80;2355.20;;;;;;5036176;28;20029;-76
2021/09/19 06:20:11;;;;;;;9.57;7.55;;;435.80;2355.20;;;;;;5036406;28;20025;-77
2021/09/19 06:22:37;;;;;;;10.25;7.65;;;435.70;2355.20;;;;;;5035201;28;20120;-81
2021/09/19 06:25:04;;;;;;;19.48;12.70;;;435.80;2355.20;;;;;;5050404;28;20048;-80
2021/09/19 06:27:29;;;;;;;13.00;9.68;;;435.90;2355.20;;;;;;5055209;28;20021;-78
2021/09/19 06:29:55;;;;;;;17.67;9.18;;;436.00;2355.20;;;;;;5042426;28;20031;-77
2021/09/19 06:32:21;;;;;;;12.68;7.22;;;436.10;2355.20;;;;;;5055880;28;20366;-77
2021/09/19 06:34:46;;;;;;;9.05;7.22;;;460.80;2380.80;;;;;;5043085;28;20029;-85
2021/09/19 06:37:12;;;;;;;16.38;7.47;;;460.90;2380.80;;;;;;5053825;28;20028;-80
2021/09/19 06:39:38;;;;;;;10.43;7.45;;;460.90;2380.80;;;;;;5056299;28;20080;-77
2021/09/19 06:42:04;;;;;;;8.25;6.93;;;461.10;2380.80;;;;;;5054396;28;20017;-77
2021/09/19 06:44:29;;;;;;;11.90;7.05;;;461.30;2380.80;;;;;;5042619;28;20025;-79
2021/09/19 06:46:56;;;;;;;11.15;7.82;;;461.40;2380.80;;;;;;5036596;28;20116;-77
2021/09/19 06:49:23;;;;;;;10.18;7.18;;;461.50;2380.80;;;;;;5035791;28;20021;-77
2021/09/19 06:51:49;;;;;;;10.85;6.22;;;461.60;2380.80;;;;;;5035739;28;20478;-78
2021/09/19 06:54:15;;;;;;;9.65;7.55;;;461.70;2380.80;;;;;;5037440;28;20026;-78
2021/09/19 06:56:41;;;;;;;11.68;6.90;;;486.40;2380.80;;;;;;5034228;28;20061;-77
2021/09/19 06:59:06;;;;;;;8.93;6.47;;;486.50;2380.80;;;;;;5034199;28;20435;-77
2021/09/19 07:01:32;;;;;;;11.80;8.02;;;486.50;2380.80;;;;;;5035516;28;20021;-78
2021/09/19 07:03:58;;;;;;;9.13;6.68;;;486.70;2380.80;;;;;;5033960;28;20025;-79
2021/09/19 07:06:24;;;;;;;11.90;6.53;;;486.70;2380.80;;;;;;5035361;28;20014;-78
2021/09/19 07:08:49;;;;;;;8.10;6.70;;;486.70;2380.80;;;;;;5034273;28;20026;-78
2021/09/19 07:11:15;;;;;;;9.57;6.45;;;486.70;2380.80;;;;;;5034056;28;20071;-82
2021/09/19 07:13:41;;;;;;;11.07;7.60;;;486.90;2355.20;;;;;;5033938;28;20488;-81
2021/09/19 07:16:07;;;;;;;10.73;6.88;;;487.00;2355.20;;;;;;5035235;28;20033;-79
2021/09/19 07:18:33;;;;;;;9.65;7.00;;;487.00;2380.80;;;;;;5038281;28;20171;-78
2021/09/19 07:20:59;;;;;;;8.88;7.20;;;487.00;2355.20;;;;;;5053866;28;20029;-77
2021/09/19 07:23:25;;;;;;;8.65;6.35;;;487.00;2329.60;;;;;;5037574;28;20034;-78
2021/09/19 07:25:51;;;;;;;8.02;6.38;;;487.00;2355.20;;;;;;5042225;28;20033;-77
2021/09/19 07:28:18;;;;;;;13.80;8.35;;;486.90;2355.20;;;;;;5054039;28;20037;-77
2021/09/19 07:30:43;;;;;;;9.30;6.78;;;487.20;2355.20;;;;;;5053828;28;20116;-77
2021/09/19 07:33:11;;;;;;;9.00;5.97;;;487.20;2329.60;;;;;;5053736;28;20112;-78
2021/09/19 07:35:38;;;;;;;8.32;6.28;;;487.10;2355.20;;;;;;5054670;28;20384;-79
2021/09/19 07:38:04;;;;;;;8.15;5.93;;;487.00;2380.80;;;;;;5054589;28;20036;-77
2021/09/19 07:40:30;;;;;;;8.38;5.88;;;487.00;2355.20;;;;;;5051796;28;20400;-76
2021/09/19 07:42:59;;;;;;;10.30;6.40;;;487.10;2329.60;;;;;;5042243;28;20419;-76
2021/09/19 07:45:26;;;;;;;10.23;5.85;;;487.20;2329.60;;;;;;5040448;28;20022;-76
2021/09/19 07:47:53;;;;;;;8.95;5.60;;;487.30;2329.60;;;;;;5033106;28;20474;-77
2021/09/19 07:50:19;;;;;;;7.60;4.95;;;512.00;2304.00;;;;;;5031785;28;20021;-77
2021/09/19 07:52:45;;;;;;;7.47;5.95;;;512.10;2278.40;;;;;;5034048;28;20021;-77
2021/09/19 07:55:14;;;;;;;6.30;4.75;;;512.00;2278.40;;;;;;5033924;28;20363;-76
2021/09/19 07:57:41;;;;;;;12.25;8.00;;;512.10;2278.40;;;;;;5046990;28;20025;-77
2021/09/19 08:00:07;;;;;;;6.68;5.05;;;512.10;2329.60;;;;;;5035620;28;20025;-77
2021/09/19 08:02:33;;;;;;;7.18;4.85;;;512.10;2329.60;;;;;;5032816;28;20536;-78
2021/09/19 08:04:59;;;;;;;7.68;4.28;;;512.20;2278.40;;;;;;5033072;28;20041;-76
2021/09/19 08:07:25;;;;;;;5.57;4.13;;;512.30;2227.20;;;;;;5034093;28;20021;-77
2021/09/19 08:09:50;;;;;;;6.95;4.88;;;512.40;2227.20;;;;;;5032574;28;20389;-79
2021/09/19 08:12:16;;;;;;;7.43;5.55;;;512.50;2252.80;;;;;;5032395;28;20351;-76
2021/09/19 08:14:42;;;;;;;9.45;4.80;;;512.30;2304.00;;;;;;5032602;28;20428;-77
2021/09/19 08:17:08;;;;;;;12.23;5.65;;;512.30;2304.00;;;;;;5032441;28;20021;-78
2021/09/19 08:19:34;;;;;;;7.60;4.80;;;512.40;2201.60;;;;;;5033537;28;20041;-77
2021/09/19 08:22:00;;;;;;;9.40;4.80;;;512.50;2201.60;;;;;;5032386;28;20021;-78
2021/09/19 08:24:26;;;;;;;6.60;4.38;;;512.50;2201.60;;;;;;5033246;28;20025;-78
2021/09/19 08:26:52;;;;;;;7.43;4.13;;;512.60;2176.00;;;;;;5033239;28;20036;-78
2021/09/19 08:29:18;;;;;;;5.13;3.95;;;512.50;2176.00;;;;;;5033572;28;20083;-79
2021/09/19 08:31:44;;;;;;;5.75;3.22;;;512.50;2176.00;;;;;;5032144;28;20021;-77
2021/09/19 08:34:10;;;;;;;6.32;3.88;;;512.60;2150.40;;;;;;5032284;28;20029;-78
2021/09/19 08:36:36;;;;;;;6.63;3.17;;;512.70;2150.40;;;;;;5032205;28;20079;-77
2021/09/19 08:39:05;;;;;;;4.60;3.10;;;512.80;2176.00;;;;;;5033115;28;20124;-78
2021/09/19 08:41:31;;;;;;;6.85;4.03;;;512.80;2150.40;;;;;;5031959;28;20470;-78
2021/09/19 08:43:57;;;;;;;5.90;3.05;;;512.80;2124.80;;;;;;5032400;28;20040;-80
2021/09/19 08:46:24;;;;;;;6.53;4.05;;;512.90;2099.20;;;;;;5032357;28;20017;-82
2021/09/19 08:48:51;;;;;;;5.07;3.40;;;512.90;2099.20;;;;;;5033150;28;20116;-78
2021/09/19 08:51:17;;;;;;;5.82;3.20;;;512.90;2099.20;;;;;;5031927;28;20013;-77
2021/09/19 08:53:43;;;;;;;4.38;3.05;;;537.60;2073.60;;;;;;5033072;28;20064;-79
2021/09/19 08:56:10;;;;;;;5.63;2.92;;;537.80;2073.60;;;;;;5032736;28;20081;-78
2021/09/19 08:58:38;;;;;;;4.05;2.88;;;537.80;2048.00;;;;;;5033690;28;20051;-77
2021/09/19 09:01:04;;;;;;;4.35;2.65;;;538.00;2022.40;;;;;;5043030;28;20412;-78
2021/09/19 09:03:31;;;;;;;4.50;2.33;;;538.00;2022.40;;;;;;5040408;28;20025;-78
2021/09/19 09:06:03;;;;;;;6.13;2.67;;;538.10;2022.40;;;;;;5029148;28;20032;-78
2021/09/19 09:08:31;;;;;;;4.30;3.00;;;538.20;1996.80;;;;;;5031398;28;20152;-78
2021/09/19 09:10:59;;;;;;;4.18;2.78;;;538.30;1945.60;;;;;;5030024;28;20493;-78
2021/09/19 09:13:27;;;;;;;2.85;1.75;;;538.50;1920.00;;;;;;5031481;28;20108;-78
2021/09/19 09:16:17;;;;;;;2.58;1.73;;;538.50;1894.40;;;;;;5032341;28;20073;-79
2021/09/19 09:18:53;;;;;;;3.78;2.28;;;563.30;1945.60;;;;;;5032626;28;20111;-77
2021/09/19 09:21:25;;;;;;;2.92;1.90;;;563.50;1920.00;;;;;;5030401;28;20041;-78
2021/09/19 09:23:53;;;;;;;3.78;2.13;;;563.60;1868.80;;;;;;5031082;28;20025;-78
2021/09/19 09:26:31;;;;;;;4.07;2.45;;;563.60;1868.80;;;;;;5028855;28;20101;-80
2021/09/19 09:29:06;;;;;;;3.30;2.28;;;563.80;1894.40;;;;;;5031471;28;20080;-78
2021/09/19 09:31:42;;;;;;;10.50;2.88;;;563.90;1894.40;;;;;;5032477;28;20067;-78
2021/09/19 09:34:11;;;;;;;4.70;2.55;;;564.00;1868.80;;;;;;5031433;28;20021;-77
2021/09/19 09:36:50;;;;;;;3.88;2.42;;;588.80;1894.40;;;;;;5031434;28;20018;-79
2021/09/19 09:39:34;;;;;;;6.05;2.92;;;589.00;1843.20;;;;;;5032384;28;20052;-77
2021/09/19 09:42:08;;;;;;;4.95;2.53;;;589.20;1843.20;;;;;;5054273;28;20112;-78
2021/09/19 09:44:43;;;;;;;4.22;2.63;;;589.30;1817.60;;;;;;5035416;28;20036;-78
2021/09/19 09:47:14;;;;;;;4.70;2.60;;;589.60;1843.20;;;;;;5035500;28;20025;-79
2021/09/19 09:49:57;;;;;;;3.63;2.35;;;589.60;1740.80;;;;;;5038061;28;20108;-78
2021/09/19 09:52:25;;;;;;;4.38;2.78;;;589.70;1766.40;;;;;;5035725;28;20477;-77
2021/09/19 09:54:54;;;;;;;5.00;2.60;;;614.40;1766.40;;;;;;5032470;28;20017;-78
2021/09/19 09:57:34;;;;;;;5.85;3.22;;;614.60;1766.40;;;;;;5036141;28;20413;-80
2021/09/19 10:00:00;;;;;;;4.60;2.17;;;614.70;1740.80;;;;;;5033697;28;20037;-76
2021/09/19 10:02:27;;;;;;;3.33;2.20;;;614.60;1740.80;;;;;;5036166;28;20091;-77
2021/09/19 10:04:57;;;;;;;3.78;2.35;;;614.80;1740.80;;;;;;5036275;28;20030;-77
2021/09/19 10:07:23;;;;;;;4.95;2.30;;;614.90;1664.00;;;;;;5034992;28;20032;-77
2021/09/19 10:09:49;;;;;;;3.50;2.20;;;615.10;1638.40;;;;;;5044770;28;20529;-78
2021/09/19 10:12:20;;;;;;;6.43;2.60;;;615.20;1638.40;;;;;;5036191;28;20104;-77
2021/09/19 10:14:49;;;;;;;3.00;2.08;;;615.20;1664.00;;;;;;5034823;28;20100;-76
2021/09/19 10:17:18;;;;;;;4.72;2.50;;;640.10;1638.40;;;;;;5034885;28;20036;-77
2021/09/19 10:19:44;;;;;;;7.90;5.07;;;640.20;1638.40;;;;;;5035922;28;20029;-78
2021/09/19 10:22:14;;;;;;;7.85;5.32;;;640.50;1638.40;;;;;;5041915;28;20021;-77
2021/09/19 10:24:40;;;;;;;4.10;2.50;;;640.60;1587.20;;;;;;5055863;28;20024;-78
2021/09/19 10:27:23;;;;;;;4.43;2.47;;;640.90;1587.20;;;;;;5056125;28;20029;-78
2021/09/19 10:30:01;;;;;;;3.00;2.20;;;665.60;1587.20;;;;;;5054695;28;20033;-79
2021/09/19 10:32:42;;;;;;;6.20;2.53;;;665.60;1612.80;;;;;;5049508;28;20025;-78
2021/09/19 10:35:29;;;;;;;5.28;2.22;;;665.90;1561.60;;;;;;5044765;28;20037;-77
2021/09/19 10:38:05;;;;;;;3.45;2.10;;;666.00;1561.60;;;;;;5035611;28;20042;-78
2021/09/19 10:40:37;;;;;;;4.50;2.55;;;666.20;1510.40;;;;;;5035655;28;20025;-78
2021/09/19 10:43:08;;;;;;;3.00;1.98;;;666.40;1510.40;;;;;;5035484;28;20079;-79
2021/09/19 10:45:45;;;;;;;4.35;3.03;;;666.20;1561.60;;;;;;5046109;28;20036;-78
2021/09/19 10:48:25;;;;;;;4.70;2.22;;;666.50;1536.00;;;;;;5035595;28;20022;-79
2021/09/19 10:51:00;;;;;;;2.97;2.10;;;;;;;;;;5035316;28;20029;-79
2021/09/19 10:53:26;;;;;;;3.95;2.58;;;691.40;1484.80;;;;;;5033260;28;20021;-78
2021/09/19 10:56:03;;;;;;;6.10;2.20;;;691.40;1459.20;;;;;;5034884;28;20220;-79
2021/09/19 10:58:40;;;;;;;4.10;1.77;;;691.30;1459.20;;;;;;5035330;28;20050;-78
2021/09/19 11:01:27;;;;;;;3.22;2.22;;;691.40;1433.60;;;;;;5035113;28;20013;-78
2021/09/19 11:03:58;;;;;;;3.15;2.13;;;691.40;1433.60;;;;;;5032818;28;20063;-78
2021/09/19 11:06:35;;;;;;;3.88;2.05;;;691.30;1459.20;;;;;;5033853;28;20025;-78
2021/09/19 11:09:21;;;;;;;5.70;2.28;;;691.70;1382.40;;;;;;5033616;28;20367;-78
2021/09/19 11:12:07;;;;;;;4.03;2.20;;;691.90;1382.40;;;;;;5038895;28;20104;-77
2021/09/19 11:15:02;;;;;;;2.92;1.77;;;716.80;1382.40;;;;;;5037814;28;20808;-77
2021/09/19 11:17:31;;;;;;;3.45;2.00;;;716.90;1356.80;;;;;;5033888;28;20052;-78
2021/09/19 11:20:16;;;;;;;2.75;1.80;;;716.80;1356.80;;;;;;5035235;28;20131;-78
2021/09/19 11:22:48;;;;;;;3.53;1.88;;;716.90;1356.80;;;;;;5053654;28;20033;-77
2021/09/19 11:25:16;;;;;;;2.97;2.17;;;716.90;1408.00;;;;;;5050077;28;20390;-77
2021/09/19 11:27:43;;;;;;;4.85;2.33;;;717.00;1382.40;;;;;;5044186;28;20037;-78
2021/09/19 11:30:10;;;;;;;3.22;2.20;;;717.10;1331.20;;;;;;5053530;28;20029;-78
2021/09/19 11:32:37;;;;;;;5.00;2.03;;;717.10;1331.20;;;;;;5054737;28;20100;-77
2021/09/19 11:35:05;;;;;;;4.60;2.00;;;717.30;1331.20;;;;;;5053155;28;20039;-78
2021/09/19 11:37:30;;;;;;;3.83;1.90;;;717.40;1331.20;;;;;;5027221;28;20420;-78
2021/09/19 11:39:58;;;;;;;6.43;1.95;;;717.30;1331.20;;;;;;5054511;28;20033;-78
2021/09/19 11:42:28;;;;;;;2.50;1.73;;;717.20;1356.80;;;;;;5050561;28;20047;-78
2021/09/19 11:44:55;;;;;;;6.40;2.22;;;717.30;1331.20;;;;;;5031828;28;20474;-77
2021/09/19 11:47:24;;;;;;;6.35;3.80;;;717.50;1331.20;;;;;;5034391;28;20033;-77
2021/09/19 11:49:53;;;;;;;4.60;2.97;;;717.40;1305.60;;;;;;5034329;28;20071;-77
2021/09/19 11:52:23;;;;;;;5.45;4.15;;;717.70;1305.60;;;;;;5032767;28;20025;-77
2021/09/19 11:54:49;;;;;;;3.08;2.20;;;742.40;1331.20;;;;;;5033962;28;20021;-77
2021/09/19 11:57:15;;;;;;;3.55;2.03;;;742.40;1305.60;;;;;;5032873;28;20387;-77
2021/09/19 11:59:45;;;;;;;4.63;2.30;;;742.40;1305.60;;;;;;5032887;28;20029;-78
2021/09/19 12:02:12;;;;;;;5.55;3.72;;;742.40;1305.60;;;;;;5034089;28;20017;-78
2021/09/19 12:04:41;;;;;;;4.40;2.15;;;717.40;1280.00;;;;;;5033624;28;20021;-78
2021/09/19 12:07:14;;;;;;;8.80;6.53;;;717.50;1280.00;;;;;;5033494;28;20026;-78
2021/09/19 12:09:48;;;;;;;3.30;1.90;;;717.50;1280.00;;;;;;5033665;28;20096;-78
2021/09/19 12:12:15;;;;;;;3.92;2.20;;;742.40;1280.00;;;;;;5032636;28;20108;-77
2021/09/19 12:14:53;;;;;;;6.03;3.78;;;717.40;1280.00;;;;;;5032553;28;20117;-77
2021/09/19 12:17:28;;;;;;;4.40;2.28;;;717.60;1280.00;;;;;;5033862;28;20036;-78